createdAt,value
2017-03-29T00:00:32.584Z,23.53
2017-03-29T00:01:32.365Z,23.5
2017-03-29T00:02:32.390Z,23.46
2017-03-29T00:03:31.791Z,23.48
2017-03-29T00:04:32.443Z,23.48
2017-03-29T00:05:32.399Z,23.51
2017-03-29T00:06:32.501Z,23.46
2017-03-29T00:07:32.218Z,23.42
2017-03-29T00:08:32.558Z,23.51
2017-03-29T00:09:32.271Z,23.47
2017-03-29T00:10:32.855Z,23.5
2017-03-29T00:11:32.045Z,23.42
2017-03-29T00:12:32.677Z,23.5
2017-03-29T00:13:32.699Z,23.4
2017-03-29T00:14:32.727Z,23.42
2017-03-29T00:15:32.436Z,23.39
2017-03-29T00:16:32.781Z,23.48
2017-03-29T00:17:32.836Z,23.51
2017-03-29T00:18:32.213Z,23.42
2017-03-29T00:19:32.868Z,23.43
2017-03-29T00:20:32.892Z,23.39
2017-03-29T00:21:32.924Z,23.39
2017-03-29T00:22:32.633Z,23.42
2017-03-29T00:23:32.974Z,23.4
2017-03-29T00:24:33.027Z,23.38
2017-03-29T00:25:32.727Z,23.33
2017-03-29T00:26:33.067Z,23.39
2017-03-29T00:27:33.088Z,23.36
2017-03-29T00:28:33.110Z,23.33
2017-03-29T00:29:32.836Z,23.36
2017-03-29T00:30:32.851Z,23.36
2017-03-29T00:31:32.889Z,23.39
2017-03-29T00:32:32.917Z,23.36
2017-03-29T00:33:32.950Z,23.38
2017-03-29T00:34:32.971Z,23.39
2017-03-29T00:35:33.315Z,23.35
2017-03-29T00:36:33.033Z,23.35
2017-03-29T00:37:33.372Z,23.32
2017-03-29T00:38:33.096Z,23.32
2017-03-29T00:39:33.421Z,23.32
2017-03-29T00:40:33.147Z,23.38
2017-03-29T00:41:33.177Z,23.38
2017-03-29T00:42:33.520Z,23.31
2017-03-29T00:43:32.917Z,23.28
2017-03-29T00:44:33.566Z,23.31
2017-03-29T00:45:33.599Z,23.25
2017-03-29T00:46:33.316Z,23.33
2017-03-29T00:47:33.340Z,23.22
2017-03-29T00:48:33.359Z,23.25
2017-03-29T00:49:33.713Z,23.27
2017-03-29T00:50:33.742Z,23.28
2017-03-29T00:51:33.392Z,23.19
2017-03-29T00:52:33.798Z,23.27
2017-03-29T00:53:33.816Z,23.22
2017-03-29T00:54:33.528Z,23.16
2017-03-29T00:55:33.890Z,23.22
2017-03-29T00:56:34.159Z,23.27
2017-03-29T00:57:33.956Z,23.17
2017-03-29T00:58:33.968Z,23.27
2017-03-29T00:59:33.990Z,23.22
2017-03-29T01:00:34.035Z,23.22
2017-03-29T01:01:34.323Z,23.2
2017-03-29T01:02:34.072Z,23.23
2017-03-29T01:03:33.798Z,23.17
2017-03-29T01:04:34.134Z,23.19
2017-03-29T01:05:34.162Z,23.15
2017-03-29T01:06:34.127Z,23.16
2017-03-29T01:07:33.908Z,23.13
2017-03-29T01:08:34.243Z,23.25
2017-03-29T01:09:33.965Z,23.13
2017-03-29T01:10:34.305Z,23.12
2017-03-29T01:11:34.570Z,23.16
2017-03-29T01:12:34.350Z,23.17
2017-03-29T01:13:34.380Z,23.22
2017-03-29T01:14:34.414Z,23.19
2017-03-29T01:15:34.123Z,23.22
2017-03-29T01:16:34.706Z,23.12
2017-03-29T01:17:34.495Z,23.16
2017-03-29T01:18:34.519Z,23.2
2017-03-29T01:19:34.240Z,23.16
2017-03-29T01:20:34.269Z,23.13
2017-03-29T01:21:34.863Z,23.17
2017-03-29T01:22:34.632Z,23.17
2017-03-29T01:23:34.656Z,23.16
2017-03-29T01:24:34.688Z,23.13
2017-03-29T01:25:34.722Z,23.13
2017-03-29T01:26:34.990Z,23.1
2017-03-29T01:27:34.771Z,23.12
2017-03-29T01:28:34.795Z,23.09
2017-03-29T01:29:34.520Z,23.09
2017-03-29T01:30:34.230Z,23.05
2017-03-29T01:31:34.814Z,23.07
2017-03-29T01:32:34.595Z,23.05
2017-03-29T01:33:34.938Z,23.12
2017-03-29T01:34:34.972Z,23.04
2017-03-29T01:35:34.997Z,23.13
2017-03-29T01:36:35.282Z,23.1
2017-03-29T01:37:34.737Z,23.04
2017-03-29T01:38:35.066Z,23.01
2017-03-29T01:39:35.107Z,23.12
2017-03-29T01:40:35.140Z,23.01
2017-03-29T01:41:35.422Z,23.02
2017-03-29T01:42:34.885Z,22.97
2017-03-29T01:43:35.210Z,23.04
2017-03-29T01:44:35.252Z,23.05
2017-03-29T01:45:34.965Z,23.04
2017-03-29T01:46:35.241Z,23.07
2017-03-29T01:47:35.341Z,23.02
2017-03-29T01:48:35.350Z,23.02
2017-03-29T01:49:35.384Z,23.09
2017-03-29T01:50:35.420Z,23.09
2017-03-29T01:51:35.697Z,23.05
2017-03-29T01:52:35.155Z,23.04
2017-03-29T01:53:35.490Z,23.05
2017-03-29T01:54:35.225Z,23.04
2017-03-29T01:55:35.239Z,23.05
2017-03-29T01:56:35.518Z,22.95
2017-03-29T01:57:35.615Z,22.97
2017-03-29T01:58:35.326Z,22.94
2017-03-29T01:59:35.666Z,23.01
2017-03-29T02:00:35.384Z,22.91
2017-03-29T02:01:35.975Z,22.97
2017-03-29T02:02:35.749Z,22.98
2017-03-29T02:03:35.781Z,22.97
2017-03-29T02:04:35.806Z,22.94
2017-03-29T02:05:35.835Z,22.94
2017-03-29T02:06:35.559Z,22.91
2017-03-29T02:07:35.885Z,22.92
2017-03-29T02:08:35.601Z,22.94
2017-03-29T02:09:35.943Z,22.92
2017-03-29T02:10:35.979Z,22.94
2017-03-29T02:11:35.996Z,22.88
2017-03-29T02:12:36.025Z,22.91
2017-03-29T02:13:35.737Z,22.88
2017-03-29T02:14:36.083Z,22.92
2017-03-29T02:15:35.822Z,22.88
2017-03-29T02:16:35.831Z,22.94
2017-03-29T02:17:35.540Z,22.91
2017-03-29T02:18:35.889Z,22.9
2017-03-29T02:19:36.223Z,22.85
2017-03-29T02:20:36.247Z,22.85
2017-03-29T02:21:35.647Z,22.8
2017-03-29T02:22:35.993Z,22.88
2017-03-29T02:23:36.333Z,22.82
2017-03-29T02:24:36.362Z,22.86
2017-03-29T02:25:36.075Z,22.86
2017-03-29T02:26:36.412Z,22.9
2017-03-29T02:27:36.443Z,22.85
2017-03-29T02:28:36.176Z,22.86
2017-03-29T02:29:36.498Z,22.86
2017-03-29T02:30:36.527Z,22.8
2017-03-29T02:31:36.247Z,22.86
2017-03-29T02:32:36.584Z,22.88
2017-03-29T02:33:36.609Z,22.85
2017-03-29T02:34:36.325Z,22.85
2017-03-29T02:35:36.667Z,22.79
2017-03-29T02:36:36.686Z,22.82
2017-03-29T02:37:36.405Z,22.8
2017-03-29T02:38:36.748Z,22.79
2017-03-29T02:39:36.785Z,22.79
2017-03-29T02:40:36.494Z,22.8
2017-03-29T02:41:36.516Z,22.79
2017-03-29T02:42:36.549Z,22.76
2017-03-29T02:43:36.891Z,22.77
2017-03-29T02:44:36.609Z,22.75
2017-03-29T02:45:36.942Z,22.79
2017-03-29T02:46:36.659Z,22.76
2017-03-29T02:47:36.999Z,22.79
2017-03-29T02:48:37.023Z,22.77
2017-03-29T02:49:37.065Z,22.72
2017-03-29T02:50:36.773Z,22.77
2017-03-29T02:51:37.111Z,22.76
2017-03-29T02:52:36.823Z,22.75
2017-03-29T02:53:36.851Z,22.8
2017-03-29T02:54:37.192Z,22.75
2017-03-29T02:55:37.218Z,22.75
2017-03-29T02:56:36.938Z,22.76
2017-03-29T02:57:37.270Z,22.72
2017-03-29T02:58:37.303Z,22.75
2017-03-29T02:59:37.328Z,22.67
2017-03-29T03:00:37.360Z,22.75
2017-03-29T03:01:37.074Z,22.77
2017-03-29T03:02:37.103Z,22.7
2017-03-29T03:03:37.126Z,22.7
2017-03-29T03:04:37.191Z,22.72
2017-03-29T03:05:37.497Z,22.76
2017-03-29T03:06:37.525Z,22.64
2017-03-29T03:07:37.237Z,22.67
2017-03-29T03:08:37.586Z,22.75
2017-03-29T03:09:37.300Z,22.67
2017-03-29T03:10:37.632Z,22.73
2017-03-29T03:11:37.666Z,22.68
2017-03-29T03:12:37.690Z,22.62
2017-03-29T03:13:37.723Z,22.67
2017-03-29T03:14:37.743Z,22.76
2017-03-29T03:15:37.153Z,22.72
2017-03-29T03:16:37.486Z,22.67
2017-03-29T03:17:38.082Z,22.72
2017-03-29T03:18:37.855Z,22.72
2017-03-29T03:19:37.884Z,22.7
2017-03-29T03:20:37.600Z,22.65
2017-03-29T03:21:37.927Z,22.7
2017-03-29T03:22:37.902Z,22.7
2017-03-29T03:23:37.998Z,22.6
2017-03-29T03:24:38.023Z,22.73
2017-03-29T03:25:38.048Z,22.7
2017-03-29T03:26:37.764Z,22.62
2017-03-29T03:27:38.357Z,22.65
2017-03-29T03:28:37.819Z,22.65
2017-03-29T03:29:38.158Z,22.67
2017-03-29T03:30:38.183Z,22.6
2017-03-29T03:31:38.221Z,22.67
2017-03-29T03:32:38.496Z,22.72
2017-03-29T03:33:37.958Z,22.64
2017-03-29T03:34:37.979Z,22.62
2017-03-29T03:35:38.351Z,22.61
2017-03-29T03:36:38.041Z,22.62
2017-03-29T03:37:38.005Z,22.64
2017-03-29T03:38:38.088Z,22.64
2017-03-29T03:39:38.438Z,22.65
2017-03-29T03:40:38.463Z,22.65
2017-03-29T03:41:38.492Z,22.65
2017-03-29T03:42:38.453Z,22.65
2017-03-29T03:43:38.260Z,22.62
2017-03-29T03:44:38.264Z,22.64
2017-03-29T03:45:38.602Z,22.64
2017-03-29T03:46:38.312Z,22.58
2017-03-29T03:47:38.593Z,22.57
2017-03-29T03:48:38.374Z,22.62
2017-03-29T03:49:38.709Z,22.55
2017-03-29T03:50:38.742Z,22.52
2017-03-29T03:51:38.768Z,22.65
2017-03-29T03:52:38.739Z,22.57
2017-03-29T03:53:38.829Z,22.58
2017-03-29T03:54:38.853Z,22.55
2017-03-29T03:55:38.882Z,22.6
2017-03-29T03:56:38.902Z,22.62
2017-03-29T03:57:39.179Z,22.58
2017-03-29T03:58:38.969Z,22.62
2017-03-29T03:59:38.986Z,22.58
2017-03-29T04:00:39.014Z,22.62
2017-03-29T04:01:39.051Z,22.58
2017-03-29T04:02:39.319Z,22.65
2017-03-29T04:03:38.787Z,22.51
2017-03-29T04:04:38.817Z,22.6
2017-03-29T04:05:39.150Z,22.54
2017-03-29T04:06:38.867Z,22.6
2017-03-29T04:07:39.459Z,22.55
2017-03-29T04:08:38.911Z,22.51
2017-03-29T04:09:38.637Z,22.51
2017-03-29T04:10:39.298Z,22.55
2017-03-29T04:11:38.999Z,22.58
2017-03-29T04:12:38.722Z,22.6
2017-03-29T04:13:39.368Z,22.49
2017-03-29T04:14:39.392Z,22.47
2017-03-29T04:15:39.113Z,22.51
2017-03-29T04:16:39.454Z,22.51
2017-03-29T04:17:39.482Z,22.54
2017-03-29T04:18:39.510Z,22.49
2017-03-29T04:19:39.224Z,22.52
2017-03-29T04:20:39.569Z,22.47
2017-03-29T04:21:38.966Z,22.54
2017-03-29T04:22:39.619Z,22.52
2017-03-29T04:23:39.648Z,22.52
2017-03-29T04:24:39.368Z,22.54
2017-03-29T04:25:39.697Z,22.54
2017-03-29T04:26:39.417Z,22.58
2017-03-29T04:27:39.453Z,22.51
2017-03-29T04:28:39.154Z,22.4
2017-03-29T04:29:39.816Z,22.45
2017-03-29T04:30:39.845Z,22.45
2017-03-29T04:31:39.864Z,22.43
2017-03-29T04:32:39.893Z,22.46
2017-03-29T04:33:39.926Z,22.42
2017-03-29T04:34:39.635Z,22.47
2017-03-29T04:35:39.664Z,22.42
2017-03-29T04:36:39.382Z,22.43
2017-03-29T04:37:40.030Z,22.45
2017-03-29T04:38:39.742Z,22.39
2017-03-29T04:39:39.460Z,22.43
2017-03-29T04:40:39.800Z,22.39
2017-03-29T04:41:40.141Z,22.39
2017-03-29T04:42:40.177Z,22.39
2017-03-29T04:43:39.878Z,22.39
2017-03-29T04:44:39.595Z,22.37
2017-03-29T04:45:40.252Z,22.45
2017-03-29T04:46:40.275Z,22.36
2017-03-29T04:47:40.309Z,22.36
2017-03-29T04:48:40.318Z,22.33
2017-03-29T04:49:40.043Z,22.37
2017-03-29T04:50:40.075Z,22.37
2017-03-29T04:51:40.413Z,22.36
2017-03-29T04:52:40.123Z,22.36
2017-03-29T04:53:40.470Z,22.39
2017-03-29T04:54:40.494Z,22.42
2017-03-29T04:55:39.899Z,22.45
2017-03-29T04:56:40.557Z,22.43
2017-03-29T04:57:40.267Z,22.37
2017-03-29T04:58:39.978Z,22.36
2017-03-29T04:59:40.322Z,22.36
2017-03-29T05:00:40.347Z,22.39
2017-03-29T05:01:40.377Z,22.4
2017-03-29T05:02:40.716Z,22.4
2017-03-29T05:03:40.737Z,22.42
2017-03-29T05:04:40.458Z,22.4
2017-03-29T05:05:40.483Z,22.4
2017-03-29T05:06:40.814Z,22.33
2017-03-29T05:07:40.852Z,22.3
2017-03-29T05:08:40.509Z,22.22
2017-03-29T05:09:40.594Z,21.99
2017-03-29T05:10:40.318Z,22.07
2017-03-29T05:11:40.967Z,21.92
2017-03-29T05:12:40.984Z,21.91
2017-03-29T05:13:41.298Z,21.84
2017-03-29T05:14:41.042Z,21.88
2017-03-29T05:15:41.070Z,21.79
2017-03-29T05:16:41.107Z,21.72
2017-03-29T05:17:41.128Z,21.69
2017-03-29T05:18:41.419Z,21.61
2017-03-29T05:19:40.893Z,21.59
2017-03-29T05:20:41.211Z,21.58
2017-03-29T05:21:41.243Z,21.43
2017-03-29T05:22:40.636Z,21.4
2017-03-29T05:23:41.228Z,21.32
2017-03-29T05:24:41.317Z,21.37
2017-03-29T05:25:41.042Z,21.34
2017-03-29T05:26:41.054Z,21.21
2017-03-29T05:27:41.088Z,21.25
2017-03-29T05:28:41.351Z,21.25
2017-03-29T05:29:41.456Z,21.24
2017-03-29T05:30:41.469Z,21.19
2017-03-29T05:31:40.879Z,21.19
2017-03-29T05:32:41.532Z,21.28
2017-03-29T05:33:41.820Z,21.24
2017-03-29T05:34:41.580Z,21.22
2017-03-29T05:35:41.605Z,21.32
2017-03-29T05:36:41.638Z,21.37
2017-03-29T05:37:41.371Z,21.4
2017-03-29T05:38:41.943Z,21.38
2017-03-29T05:39:41.712Z,21.46
2017-03-29T05:40:41.440Z,21.5
2017-03-29T05:41:41.791Z,21.46
2017-03-29T05:42:41.798Z,21.58
2017-03-29T05:43:41.763Z,21.56
2017-03-29T05:44:41.531Z,21.62
2017-03-29T05:45:41.881Z,21.67
2017-03-29T05:46:41.906Z,21.71
2017-03-29T05:47:41.929Z,21.72
2017-03-29T05:48:42.213Z,21.72
2017-03-29T05:49:41.980Z,21.71
2017-03-29T05:50:42.007Z,21.77
2017-03-29T05:51:41.729Z,21.71
2017-03-29T05:52:42.059Z,21.8
2017-03-29T05:53:41.714Z,21.86
2017-03-29T05:54:42.124Z,21.82
2017-03-29T05:55:42.153Z,21.91
2017-03-29T05:56:42.178Z,21.79
2017-03-29T05:57:41.881Z,21.79
2017-03-29T05:58:42.485Z,21.88
2017-03-29T05:59:41.939Z,21.91
2017-03-29T06:00:41.962Z,21.91
2017-03-29T06:01:41.997Z,21.72
2017-03-29T06:02:42.337Z,21.88
2017-03-29T06:03:42.294Z,21.75
2017-03-29T06:04:42.086Z,21.8
2017-03-29T06:05:42.412Z,21.84
2017-03-29T06:06:42.456Z,21.92
2017-03-29T06:07:42.470Z,21.96
2017-03-29T06:08:42.437Z,21.98
2017-03-29T06:09:42.526Z,21.94
2017-03-29T06:10:42.547Z,21.94
2017-03-29T06:11:42.269Z,21.92
2017-03-29T06:12:42.609Z,21.98
2017-03-29T06:13:42.881Z,22.02
2017-03-29T06:14:42.654Z,22
2017-03-29T06:15:42.372Z,22.05
2017-03-29T06:16:42.711Z,22.07
2017-03-29T06:17:42.748Z,22.07
2017-03-29T06:18:43.021Z,22.07
2017-03-29T06:19:42.483Z,21.98
2017-03-29T06:20:42.824Z,22.1
2017-03-29T06:21:42.848Z,22.03
2017-03-29T06:22:42.876Z,22.05
2017-03-29T06:23:43.145Z,22
2017-03-29T06:24:42.926Z,22.02
2017-03-29T06:25:42.646Z,22.06
2017-03-29T06:26:42.984Z,22.1
2017-03-29T06:27:43.012Z,22.05
2017-03-29T06:28:42.972Z,22.03
2017-03-29T06:29:42.754Z,22.05
2017-03-29T06:30:43.095Z,22.05
2017-03-29T06:31:43.107Z,22.03
2017-03-29T06:32:43.147Z,22.07
2017-03-29T06:33:42.796Z,22.07
2017-03-29T06:34:43.205Z,21.99
2017-03-29T06:35:43.228Z,22.06
2017-03-29T06:36:43.256Z,22.06
2017-03-29T06:37:43.276Z,22.07
2017-03-29T06:38:43.249Z,22.05
2017-03-29T06:39:42.709Z,22.05
2017-03-29T06:40:43.055Z,22.06
2017-03-29T06:41:43.074Z,22.07
2017-03-29T06:42:43.419Z,22.06
2017-03-29T06:43:43.700Z,22.02
2017-03-29T06:44:42.840Z,22.05
2017-03-29T06:45:43.497Z,22.06
2017-03-29T06:46:43.215Z,22.09
2017-03-29T06:47:43.554Z,22.07
2017-03-29T06:48:43.520Z,22.05
2017-03-29T06:49:43.312Z,22.05
2017-03-29T06:50:43.636Z,22.07
2017-03-29T06:51:43.659Z,22.14
2017-03-29T06:52:43.686Z,22.18
2017-03-29T06:53:43.966Z,22.09
2017-03-29T06:54:43.745Z,22.14
2017-03-29T06:55:43.767Z,22.14
2017-03-29T06:56:43.492Z,22.17
2017-03-29T06:57:43.515Z,22.14
2017-03-29T06:58:43.531Z,22.18
2017-03-29T06:59:43.872Z,22.15
2017-03-29T07:00:43.911Z,22.27
2017-03-29T07:01:43.625Z,22.18
2017-03-29T07:02:43.959Z,22.2
2017-03-29T07:03:44.043Z,22.2
2017-03-29T07:04:44.338Z,22.21
2017-03-29T07:05:43.765Z,22.24
2017-03-29T07:06:43.753Z,22.25
2017-03-29T07:07:43.471Z,22.25
2017-03-29T07:08:44.122Z,22.25
2017-03-29T07:09:44.148Z,22.31
2017-03-29T07:10:43.864Z,22.27
2017-03-29T07:11:43.577Z,22.27
2017-03-29T07:12:44.226Z,22.27
2017-03-29T07:13:44.250Z,22.24
2017-03-29T07:14:44.283Z,22.27
2017-03-29T07:15:44.312Z,22.25
2017-03-29T07:16:44.017Z,22.27
2017-03-29T07:17:43.746Z,22.3
2017-03-29T07:18:44.389Z,22.3
2017-03-29T07:19:44.107Z,22.33
2017-03-29T07:20:43.820Z,22.43
2017-03-29T07:21:44.465Z,22.37
2017-03-29T07:22:44.184Z,22.36
2017-03-29T07:23:44.215Z,22.37
2017-03-29T07:24:44.559Z,22.42
2017-03-29T07:25:44.268Z,22.39
2017-03-29T07:26:44.631Z,22.39
2017-03-29T07:27:44.641Z,22.43
2017-03-29T07:28:44.349Z,22.54
2017-03-29T07:29:44.691Z,22.54
2017-03-29T07:30:44.408Z,22.58
2017-03-29T07:31:44.435Z,22.6
2017-03-29T07:32:44.769Z,22.64
2017-03-29T07:33:44.486Z,23.13
2017-03-29T07:34:44.827Z,23.65
2017-03-29T07:35:44.855Z,23.97
2017-03-29T07:36:44.884Z,24.32
2017-03-29T07:37:44.597Z,24.6
2017-03-29T07:38:44.630Z,24.85
2017-03-29T07:39:44.963Z,25.09
2017-03-29T07:40:44.990Z,25.15
2017-03-29T07:41:45.018Z,24.8
2017-03-29T07:42:44.420Z,25.08
2017-03-29T07:43:44.763Z,25.42
2017-03-29T07:44:45.102Z,25.69
2017-03-29T07:45:45.131Z,25.98
2017-03-29T07:46:45.155Z,26.26
2017-03-29T07:47:45.187Z,26.47
2017-03-29T07:48:44.585Z,26.37
2017-03-29T07:49:45.182Z,26.4
2017-03-29T07:50:45.270Z,26.44
2017-03-29T07:51:45.303Z,26.44
2017-03-29T07:52:45.012Z,26.28
2017-03-29T07:53:45.041Z,26.05
2017-03-29T07:54:45.325Z,25.77
2017-03-29T07:55:45.410Z,25.47
2017-03-29T07:56:45.125Z,25.24
2017-03-29T07:57:45.463Z,25.09
2017-03-29T07:58:44.872Z,24.96
2017-03-29T07:59:45.469Z,24.77
2017-03-29T08:00:45.554Z,24.6
2017-03-29T08:01:45.582Z,24.46
2017-03-29T08:02:45.296Z,24.46
2017-03-29T08:03:45.637Z,24.25
2017-03-29T08:04:45.921Z,24.21
2017-03-29T08:05:45.382Z,24.15
2017-03-29T08:06:45.724Z,24.12
2017-03-29T08:07:45.431Z,24.12
2017-03-29T08:08:45.781Z,24.06
2017-03-29T08:09:45.749Z,24.03
2017-03-29T08:10:45.525Z,24.03
2017-03-29T08:11:45.866Z,23.97
2017-03-29T08:12:45.895Z,23.93
2017-03-29T08:13:45.617Z,23.94
2017-03-29T08:14:46.193Z,23.83
2017-03-29T08:15:45.979Z,23.84
2017-03-29T08:16:46.008Z,23.79
2017-03-29T08:17:45.717Z,23.73
2017-03-29T08:18:46.065Z,23.73
2017-03-29T08:19:46.335Z,23.68
2017-03-29T08:20:46.112Z,23.66
2017-03-29T08:21:46.150Z,23.55
2017-03-29T08:22:46.174Z,23.61
2017-03-29T08:23:46.199Z,23.65
2017-03-29T08:24:46.464Z,23.55
2017-03-29T08:25:45.948Z,23.57
2017-03-29T08:26:46.281Z,23.6
2017-03-29T08:27:46.305Z,23.58
2017-03-29T08:28:46.351Z,23.57
2017-03-29T08:29:46.616Z,23.57
2017-03-29T08:30:46.084Z,23.65
2017-03-29T08:31:46.425Z,23.58
2017-03-29T08:32:46.449Z,23.54
2017-03-29T08:33:45.850Z,23.51
2017-03-29T08:34:46.431Z,23.51
2017-03-29T08:35:46.545Z,23.5
2017-03-29T08:36:46.561Z,23.46
2017-03-29T08:37:46.582Z,23.46
2017-03-29T08:38:46.303Z,23.51
2017-03-29T08:39:46.889Z,23.54
2017-03-29T08:40:46.356Z,23.54
2017-03-29T08:41:46.384Z,23.51
2017-03-29T08:42:46.725Z,23.46
2017-03-29T08:43:46.444Z,23.54
2017-03-29T08:44:47.031Z,23.54
2017-03-29T08:45:46.804Z,23.43
2017-03-29T08:46:46.525Z,23.5
2017-03-29T08:47:46.864Z,23.46
2017-03-29T08:48:46.894Z,23.51
2017-03-29T08:49:47.165Z,23.5
2017-03-29T08:50:46.948Z,23.46
2017-03-29T08:51:46.656Z,23.5
2017-03-29T08:52:47.004Z,23.53
2017-03-29T08:53:47.037Z,23.53
2017-03-29T08:54:47.314Z,23.53
2017-03-29T08:55:47.088Z,23.51
2017-03-29T08:56:46.800Z,23.54
2017-03-29T08:57:47.141Z,23.51
2017-03-29T08:58:47.174Z,23.57
2017-03-29T08:59:47.162Z,23.57
2017-03-29T09:00:47.219Z,23.58
2017-03-29T09:01:47.247Z,23.58
2017-03-29T09:02:46.973Z,23.79
2017-03-29T09:03:47.313Z,23.88
2017-03-29T09:04:47.582Z,23.98
2017-03-29T09:05:47.057Z,24.22
2017-03-29T09:06:47.396Z,24.43
2017-03-29T09:07:47.445Z,24.61
2017-03-29T09:08:47.129Z,24.81
2017-03-29T09:09:47.411Z,25.09
2017-03-29T09:10:47.196Z,25.23
2017-03-29T09:11:47.219Z,25.4
2017-03-29T09:12:47.253Z,25.6
2017-03-29T09:13:47.288Z,25.62
2017-03-29T09:14:47.869Z,25.51
2017-03-29T09:15:47.333Z,25.47
2017-03-29T09:16:47.678Z,25.57
2017-03-29T09:17:47.708Z,25.69
2017-03-29T09:18:47.723Z,25.67
2017-03-29T09:19:47.702Z,25.7
2017-03-29T09:20:47.786Z,25.64
2017-03-29T09:21:47.813Z,25.52
2017-03-29T09:22:47.216Z,25.47
2017-03-29T09:23:47.560Z,25.5
2017-03-29T09:24:48.169Z,25.35
2017-03-29T09:25:47.614Z,25.39
2017-03-29T09:26:47.954Z,25.2
2017-03-29T09:27:47.672Z,25.17
2017-03-29T09:28:47.691Z,25.13
2017-03-29T09:29:47.980Z,25.09
2017-03-29T09:30:48.071Z,25.05
2017-03-29T09:31:48.099Z,25
2017-03-29T09:32:48.157Z,24.91
2017-03-29T09:33:48.152Z,24.93
2017-03-29T09:34:48.446Z,24.87
2017-03-29T09:35:48.210Z,24.73
2017-03-29T09:36:48.242Z,24.69
2017-03-29T09:37:48.267Z,24.71
2017-03-29T09:38:48.307Z,24.69
2017-03-29T09:39:48.264Z,24.49
2017-03-29T09:40:48.350Z,24.57
2017-03-29T09:41:48.383Z,24.47
2017-03-29T09:42:48.087Z,24.47
2017-03-29T09:43:48.441Z,24.37
2017-03-29T09:44:48.721Z,24.55
2017-03-29T09:45:48.497Z,24.4
2017-03-29T09:46:48.210Z,24.42
2017-03-29T09:47:47.926Z,24.4
2017-03-29T09:48:48.258Z,24.35
2017-03-29T09:49:48.860Z,24.37
2017-03-29T09:50:48.641Z,24.42
2017-03-29T09:51:48.357Z,24.42
2017-03-29T09:52:48.698Z,24.4
2017-03-29T09:53:48.416Z,24.39
2017-03-29T09:54:48.999Z,24.39
2017-03-29T09:55:48.465Z,24.42
2017-03-29T09:56:48.810Z,24.43
2017-03-29T09:57:48.834Z,24.35
2017-03-29T09:58:48.864Z,24.42
2017-03-29T09:59:48.884Z,24.42
2017-03-29T10:00:48.920Z,24.46
2017-03-29T10:01:48.637Z,24.49
2017-03-29T10:02:48.977Z,24.49
2017-03-29T10:03:49.005Z,24.46
2017-03-29T10:04:49.027Z,24.45
2017-03-29T10:05:49.065Z,24.53
2017-03-29T10:06:49.085Z,24.49
2017-03-29T10:07:49.117Z,24.46
2017-03-29T10:08:49.146Z,24.55
2017-03-29T10:09:49.170Z,24.53
2017-03-29T10:10:49.205Z,24.45
2017-03-29T10:11:49.228Z,24.49
2017-03-29T10:12:49.261Z,24.58
2017-03-29T10:13:49.281Z,24.53
2017-03-29T10:14:49.312Z,24.6
2017-03-29T10:15:49.347Z,24.55
2017-03-29T10:16:49.373Z,24.53
2017-03-29T10:17:49.401Z,24.52
2017-03-29T10:18:49.434Z,24.52
2017-03-29T10:19:49.454Z,24.65
2017-03-29T10:20:49.488Z,24.55
2017-03-29T10:21:49.200Z,24.6
2017-03-29T10:22:49.545Z,24.52
2017-03-29T10:23:49.267Z,24.53
2017-03-29T10:24:49.611Z,24.52
2017-03-29T10:25:49.635Z,24.64
2017-03-29T10:26:49.664Z,24.68
2017-03-29T10:27:49.065Z,24.61
2017-03-29T10:28:49.717Z,24.58
2017-03-29T10:29:49.750Z,24.76
2017-03-29T10:30:49.778Z,24.64
2017-03-29T10:31:49.170Z,24.64
2017-03-29T10:32:49.523Z,24.6
2017-03-29T10:33:49.545Z,24.61
2017-03-29T10:34:49.891Z,24.58
2017-03-29T10:35:49.918Z,24.65
2017-03-29T10:36:49.944Z,24.65
2017-03-29T10:37:49.978Z,24.68
2017-03-29T10:38:49.685Z,24.57
2017-03-29T10:39:50.028Z,24.62
2017-03-29T10:40:50.014Z,24.58
2017-03-29T10:41:50.098Z,24.64
2017-03-29T10:42:49.796Z,24.57
2017-03-29T10:43:50.153Z,24.52
2017-03-29T10:44:50.173Z,24.55
2017-03-29T10:45:50.453Z,24.61
2017-03-29T10:46:49.918Z,24.58
2017-03-29T10:47:50.260Z,24.6
2017-03-29T10:48:50.288Z,24.64
2017-03-29T10:49:50.010Z,24.65
2017-03-29T10:50:50.281Z,24.53
2017-03-29T10:51:50.374Z,24.55
2017-03-29T10:52:50.399Z,24.6
2017-03-29T10:53:49.801Z,24.57
2017-03-29T10:54:50.157Z,24.55
2017-03-29T10:55:50.424Z,24.53
2017-03-29T10:56:49.895Z,24.6
2017-03-29T10:57:49.919Z,24.57
2017-03-29T10:58:50.581Z,24.64
2017-03-29T10:59:50.604Z,24.65
2017-03-29T11:00:50.890Z,24.57
2017-03-29T11:01:50.663Z,24.55
2017-03-29T11:02:50.384Z,24.55
2017-03-29T11:03:50.721Z,24.57
2017-03-29T11:04:50.752Z,24.61
2017-03-29T11:05:51.036Z,24.57
2017-03-29T11:06:50.493Z,24.57
2017-03-29T11:07:50.835Z,24.67
2017-03-29T11:08:50.871Z,24.57
2017-03-29T11:09:50.889Z,24.62
2017-03-29T11:10:50.862Z,24.61
2017-03-29T11:11:50.646Z,24.6
2017-03-29T11:12:50.979Z,24.62
2017-03-29T11:13:51.007Z,24.55
2017-03-29T11:14:50.720Z,24.65
2017-03-29T11:15:51.316Z,24.5
2017-03-29T11:16:50.784Z,24.67
2017-03-29T11:17:50.811Z,24.62
2017-03-29T11:18:51.162Z,24.68
2017-03-29T11:19:51.180Z,24.65
2017-03-29T11:20:51.469Z,24.78
2017-03-29T11:21:51.241Z,24.64
2017-03-29T11:22:51.277Z,24.62
2017-03-29T11:23:50.987Z,24.55
2017-03-29T11:24:51.323Z,24.73
2017-03-29T11:25:51.292Z,24.71
2017-03-29T11:26:51.069Z,24.71
2017-03-29T11:27:51.106Z,24.71
2017-03-29T11:28:51.450Z,24.68
2017-03-29T11:29:51.466Z,24.71
2017-03-29T11:30:51.436Z,24.65
2017-03-29T11:31:51.525Z,24.84
2017-03-29T11:32:51.248Z,24.8
2017-03-29T11:33:51.268Z,24.83
2017-03-29T11:34:51.306Z,24.87
2017-03-29T11:35:51.908Z,24.9
2017-03-29T11:36:51.685Z,24.87
2017-03-29T11:37:51.393Z,24.99
2017-03-29T11:38:51.450Z,24.93
2017-03-29T11:39:51.763Z,24.99
2017-03-29T11:40:51.730Z,25.06
2017-03-29T11:41:51.503Z,25.08
2017-03-29T11:42:51.225Z,25.1
2017-03-29T11:43:51.562Z,25.17
2017-03-29T11:44:51.587Z,25.09
2017-03-29T11:45:51.874Z,25.18
2017-03-29T11:46:51.647Z,25.18
2017-03-29T11:47:51.996Z,25.35
2017-03-29T11:48:51.714Z,25.38
2017-03-29T11:49:52.061Z,25.36
2017-03-29T11:50:52.022Z,25.47
2017-03-29T11:51:51.498Z,25.54
2017-03-29T11:52:52.140Z,25.6
2017-03-29T11:53:52.169Z,25.76
2017-03-29T11:54:52.201Z,25.82
2017-03-29T11:55:52.477Z,25.9
2017-03-29T11:56:52.255Z,26.07
2017-03-29T11:57:52.288Z,26.15
2017-03-29T11:58:52.313Z,26.3
2017-03-29T11:59:52.349Z,26.52
2017-03-29T12:00:52.628Z,26.55
2017-03-29T12:01:52.410Z,26.69
2017-03-29T12:02:52.126Z,26.8
2017-03-29T12:03:52.479Z,26.89
2017-03-29T12:04:52.506Z,27.09
2017-03-29T12:05:52.465Z,27.22
2017-03-29T12:06:52.554Z,27.25
2017-03-29T12:07:52.596Z,27.44
2017-03-29T12:08:52.308Z,27.49
2017-03-29T12:09:52.657Z,27.72
2017-03-29T12:10:52.618Z,27.72
2017-03-29T12:11:52.703Z,27.79
2017-03-29T12:12:52.748Z,27.92
2017-03-29T12:13:52.460Z,28.04
2017-03-29T12:14:52.185Z,28.14
2017-03-29T12:15:53.089Z,28.24
2017-03-29T12:16:52.550Z,28.36
2017-03-29T12:17:52.895Z,28.41
2017-03-29T12:18:52.616Z,28.44
2017-03-29T12:19:52.973Z,28.56
2017-03-29T12:20:53.246Z,28.61
2017-03-29T12:21:53.028Z,28.73
2017-03-29T12:22:53.060Z,28.8
2017-03-29T12:23:53.088Z,28.86
2017-03-29T12:24:53.123Z,28.93
2017-03-29T12:25:53.407Z,28.95
2017-03-29T12:26:52.906Z,29.15
2017-03-29T12:27:53.220Z,29.09
2017-03-29T12:28:53.244Z,29.23
2017-03-29T12:29:53.280Z,29.24
2017-03-29T12:30:53.561Z,29.28
2017-03-29T12:31:53.342Z,29.33
2017-03-29T12:32:53.370Z,29.48
2017-03-29T12:33:53.408Z,29.52
2017-03-29T12:34:53.124Z,29.65
2017-03-29T12:35:53.415Z,29.55
2017-03-29T12:36:53.502Z,29.68
2017-03-29T12:37:53.538Z,29.76
2017-03-29T12:38:53.575Z,29.78
2017-03-29T12:39:53.601Z,29.78
2017-03-29T12:40:53.881Z,29.86
2017-03-29T12:41:53.669Z,29.86
2017-03-29T12:42:53.701Z,29.9
2017-03-29T12:43:53.730Z,29.89
2017-03-29T12:44:53.760Z,29.95
2017-03-29T12:45:54.044Z,29.98
2017-03-29T12:46:53.828Z,30.01
2017-03-29T12:47:53.858Z,29.95
2017-03-29T12:48:53.582Z,30.04
2017-03-29T12:49:53.930Z,30.11
2017-03-29T12:50:53.964Z,30.13
2017-03-29T12:51:53.676Z,30.16
2017-03-29T12:52:54.026Z,30.17
2017-03-29T12:53:53.741Z,30.16
2017-03-29T12:54:54.087Z,30.19
2017-03-29T12:55:54.120Z,30.26